Cedar Valley, Iowa
Current Conditions -  °F | °C
As of 7:52 AM on Saturday 22 Nov 2014 (Local Time) from KIOW Reporting Station
Moderate Fog Moderate Fog  
Wind Chill: 38°   Ceiling: 200
Heat Index: 38°   Visibility: 0.25mi
Dew Point: 38°   Wind: 0mph
Humidity: 100%   Direction: NA
Pressure: 29.95"   Gusts: NA
Location:  41.6714°N, 91.2723°W
Report Text: KIOW 221352Z AUTO 00000KT 1/4SM FG VV002 03/03 A2995 RMK AO2 SLP147 T00330033
Loading
Personal Weather Stations






























Interactive Weather Map New forecast layout! Learn more

10-Day Weather Forecast

Advertisements
Track Severe Weather on mobile